Phoenix Cross — MRBQ7 — position and weather

sailwx.info

Track history (hours):
 
Tides and Currents Weather Stations Pressure Air Temp Water Temp Dewpoint Dewpoint Depression Visibility Wind Speed Wind Dir Waves Ship Positions

Phoenix Cross

Last reported at 2015-Jun-30 15:33 UTC. Time now 2015-Jun-30 21:26 UTC.
Position N 54°35' W 001°13'.

Length 30 m; draft 5 m.

Type: Ship. MMSI: 235067452.

Date/timePositionNaut miles runAvg speedWind from/ knotsBaromVisibWave heightAir tempDewpointWater temp
2015-Jun-30 15:33N 54°35' W 001°13'0 0.0
2015-Jun-30 14:33N 54°35' W 001°13'0 0.0
2015-Jun-30 13:31N 54°35' W 001°13'0 0.0
2015-Jun-30 12:33N 54°35' W 001°13'0 0.0
2015-Jun-30 11:33N 54°35' W 001°13'0 0.0
2015-Jun-30 10:33N 54°35' W 001°13'0 0.0
2015-Jun-30 09:33N 54°35' W 001°13'0 0.0
2015-Jun-30 08:33N 54°35' W 001°13'0 0.0
2015-Jun-30 07:34N 54°35' W 001°13'0 0.0
2015-Jun-30 06:33N 54°35' W 001°13'0 0.0
2015-Jun-30 05:33N 54°35' W 001°13'0 0.0
2015-Jun-29 16:33N 54°35' W 001°13'0 0.0
2015-Jun-29 15:33N 54°35' W 001°13'0 0.0
2015-Jun-29 14:29N 54°35' W 001°13'0 0.0
2015-Jun-29 13:33N 54°35' W 001°13'0 0.0
2015-Jun-29 12:33N 54°35' W 001°13'0 0.0
2015-Jun-29 11:33N 54°35' W 001°13'  
2015-Jun-26 07:30N 54°42' W 001°12'0 0.0
2015-Jun-26 06:33N 54°42' W 001°12'6 0.3
2015-Jun-25 09:22N 54°35' W 001°11'2 1.9
2015-Jun-25 08:15N 54°37' W 001°09'0 0.2
2015-Jun-25 07:14N 54°37' W 001°10'0 0.2
2015-Jun-25 06:15N 54°37' W 001°09'1 0.8
2015-Jun-25 05:33N 54°38' W 001°09'3 0.3
2015-Jun-24 17:10N 54°35' W 001°13'0 0.0
2015-Jun-24 16:33N 54°35' W 001°13'0 0.0
2015-Jun-24 15:33N 54°35' W 001°13'0 0.0
2015-Jun-24 14:33N 54°35' W 001°13'0 0.0
2015-Jun-24 13:33N 54°35' W 001°13'0 0.0
2015-Jun-24 12:33N 54°35' W 001°13'0 0.0
2015-Jun-24 11:32N 54°35' W 001°13'0 0.0
2015-Jun-24 10:33N 54°35' W 001°13'0 0.2
2015-Jun-24 09:33N 54°35' W 001°12'3 3.1
2015-Jun-24 08:33N 54°38' W 001°11'1 0.6
2015-Jun-24 07:33N 54°38' W 001°10'1 0.8
2015-Jun-24 06:33N 54°38' W 001°09'0 0.1
2015-Jun-24 05:32N 54°38' W 001°09'3 0.3
2015-Jun-23 20:29N 54°41' W 001°10'0 0.3
2015-Jun-23 19:25N 54°41' W 001°09'6 0.2
2015-Jun-22 11:17N 54°35' W 001°13'0 0.0
2015-Jun-22 10:31N 54°35' W 001°13'0 0.0
2015-Jun-22 09:32N 54°35' W 001°13'4 4.0
2015-Jun-22 08:33N 54°38' W 001°09'4 3.9
2015-Jun-22 07:33N 54°42' W 001°11'0 0.1
2015-Jun-22 06:33N 54°42' W 001°11'5 5.0
2015-Jun-22 05:33N 54°37' W 001°09'1 0.7
2015-Jun-22 04:32N 54°36' W 001°10'1 1.1
2015-Jun-22 03:33N 54°37' W 001°09'2 0.3
2015-Jun-21 21:33N 54°36' W 001°11'1 1.3
2015-Jun-21 20:31N 54°37' W 001°09'3 2.9
2015-Jun-21 19:34N 54°35' W 001°13'0 0.0
2015-Jun-21 18:33N 54°35' W 001°13'3 2.7
2015-Jun-21 17:33N 54°37' W 001°09'1 0.6
2015-Jun-21 16:32N 54°37' W 001°09'5 4.6
2015-Jun-21 15:32N 54°42' W 001°06'4 4.4
2015-Jun-21 14:33N 54°38' W 001°09'3 3.3
2015-Jun-21 13:32N 54°35' W 001°13'0 0.0
2015-Jun-21 12:33N 54°35' W 001°13'2 2.5
2015-Jun-21 11:33N 54°36' W 001°09'1 0.9
2015-Jun-21 10:34N 54°37' W 001°09'0 0.0
2015-Jun-21 09:33N 54°37' W 001°09'0 0.4
2015-Jun-21 08:33N 54°37' W 001°09'1 1.5
2015-Jun-21 07:32N 54°36' W 001°11'2 1.9
2015-Jun-21 06:32N 54°38' W 001°10'3 2.7
2015-Jun-21 05:32N 54°35' W 001°12'  
Track history (hours):
 
Tides and Currents Weather Stations Pressure Air Temp Water Temp Dewpoint Dewpoint Depression Visibility Wind Speed Wind Dir Waves Ship Positions

Phoenix Cross

Last reported at 2015-Jun-30 15:33 UTC. Time now 2015-Jun-30 21:26 UTC.
Position N 54°35' W 001°13'.

Length 30 m; draft 5 m.

Type: Ship. MMSI: 235067452.

Date/timePositionNaut miles runAvg speedWind from/ knotsBaromVisibWave heightAir tempDewpointWater temp
2015-Jun-30 15:33N 54°35' W 001°13'0 0.0
2015-Jun-30 14:33N 54°35' W 001°13'0 0.0
2015-Jun-30 13:31N 54°35' W 001°13'0 0.0
2015-Jun-30 12:33N 54°35' W 001°13'0 0.0
2015-Jun-30 11:33N 54°35' W 001°13'0 0.0
2015-Jun-30 10:33N 54°35' W 001°13'0 0.0
2015-Jun-30 09:33N 54°35' W 001°13'0 0.0
2015-Jun-30 08:33N 54°35' W 001°13'0 0.0
2015-Jun-30 07:34N 54°35' W 001°13'0 0.0
2015-Jun-30 06:33N 54°35' W 001°13'0 0.0
2015-Jun-30 05:33N 54°35' W 001°13'0 0.0
2015-Jun-29 16:33N 54°35' W 001°13'0 0.0
2015-Jun-29 15:33N 54°35' W 001°13'0 0.0
2015-Jun-29 14:29N 54°35' W 001°13'0 0.0
2015-Jun-29 13:33N 54°35' W 001°13'0 0.0
2015-Jun-29 12:33N 54°35' W 001°13'0 0.0
2015-Jun-29 11:33N 54°35' W 001°13'  
2015-Jun-26 07:30N 54°42' W 001°12'0 0.0
2015-Jun-26 06:33N 54°42' W 001°12'6 0.3
2015-Jun-25 09:22N 54°35' W 001°11'2 1.9
2015-Jun-25 08:15N 54°37' W 001°09'0 0.2
2015-Jun-25 07:14N 54°37' W 001°10'0 0.2
2015-Jun-25 06:15N 54°37' W 001°09'1 0.8
2015-Jun-25 05:33N 54°38' W 001°09'3 0.3
2015-Jun-24 17:10N 54°35' W 001°13'0 0.0
2015-Jun-24 16:33N 54°35' W 001°13'0 0.0
2015-Jun-24 15:33N 54°35' W 001°13'0 0.0
2015-Jun-24 14:33N 54°35' W 001°13'0 0.0
2015-Jun-24 13:33N 54°35' W 001°13'0 0.0
2015-Jun-24 12:33N 54°35' W 001°13'0 0.0
2015-Jun-24 11:32N 54°35' W 001°13'0 0.0
2015-Jun-24 10:33N 54°35' W 001°13'0 0.2
2015-Jun-24 09:33N 54°35' W 001°12'3 3.1
2015-Jun-24 08:33N 54°38' W 001°11'1 0.6
2015-Jun-24 07:33N 54°38' W 001°10'1 0.8
2015-Jun-24 06:33N 54°38' W 001°09'0 0.1
2015-Jun-24 05:32N 54°38' W 001°09'3 0.3
2015-Jun-23 20:29N 54°41' W 001°10'0 0.3
2015-Jun-23 19:25N 54°41' W 001°09'6 0.2
2015-Jun-22 11:17N 54°35' W 001°13'0 0.0
2015-Jun-22 10:31N 54°35' W 001°13'0 0.0
2015-Jun-22 09:32N 54°35' W 001°13'4 4.0
2015-Jun-22 08:33N 54°38' W 001°09'4 3.9
2015-Jun-22 07:33N 54°42' W 001°11'0 0.1
2015-Jun-22 06:33N 54°42' W 001°11'5 5.0
2015-Jun-22 05:33N 54°37' W 001°09'1 0.7
2015-Jun-22 04:32N 54°36' W 001°10'1 1.1
2015-Jun-22 03:33N 54°37' W 001°09'2 0.3
2015-Jun-21 21:33N 54°36' W 001°11'1 1.3
2015-Jun-21 20:31N 54°37' W 001°09'3 2.9
2015-Jun-21 19:34N 54°35' W 001°13'0 0.0
2015-Jun-21 18:33N 54°35' W 001°13'3 2.7
2015-Jun-21 17:33N 54°37' W 001°09'1 0.6
2015-Jun-21 16:32N 54°37' W 001°09'5 4.6
2015-Jun-21 15:32N 54°42' W 001°06'4 4.4
2015-Jun-21 14:33N 54°38' W 001°09'3 3.3
2015-Jun-21 13:32N 54°35' W 001°13'0 0.0
2015-Jun-21 12:33N 54°35' W 001°13'2 2.5
2015-Jun-21 11:33N 54°36' W 001°09'1 0.9
2015-Jun-21 10:34N 54°37' W 001°09'0 0.0
2015-Jun-21 09:33N 54°37' W 001°09'0 0.4
2015-Jun-21 08:33N 54°37' W 001°09'1 1.5
2015-Jun-21 07:32N 54°36' W 001°11'2 1.9
2015-Jun-21 06:32N 54°38' W 001°10'3 2.7
2015-Jun-21 05:32N 54°35' W 001°12'  

Dump ship's entire track history